Time;durP1;ratioP1;P1;durP2;ratioP2;P2;SDS_P1;SDS_P2;PMS_P1;PMS_P2;Temp;Humidity;BMP_temperature;BMP_pressure;BME280_temperature;BME280_humidity;BME280_pressure;Samples;Min_cycle;Max_cycle;Signal;HPM_P1;HPM_P2
2023/06/27 00:01:42;;;;;;;5.65;2.90;;;;;;;20.14;61.96;101867.97;5102771;28;20162;-62
2023/06/27 00:04:30;;;;;;;6.30;2.78;;;;;;;20.11;61.92;101868.59;5098739;28;20052;-63
2023/06/27 00:07:18;;;;;;;8.18;2.53;;;;;;;20.09;62.19;101870.84;5097872;28;20056;-63
2023/06/27 00:10:07;;;;;;;7.78;2.95;;;;;;;20.07;62.24;101870.31;5099371;27;20048;-64
2023/06/27 00:12:56;;;;;;;7.03;2.60;;;;;;;20.09;62.87;101875.56;5100777;28;20054;-62
2023/06/27 00:15:44;;;;;;;7.25;3.30;;;;;;;20.06;62.57;101871.47;5097613;28;20131;-61
2023/06/27 00:18:34;;;;;;;6.97;2.85;;;;;;;20.04;63.09;101878.44;5096399;27;20138;-63
2023/06/27 00:21:28;;;;;;;6.35;2.58;;;;;;;20.00;63.20;101879.03;5106766;28;20438;-64
2023/06/27 00:24:16;;;;;;;5.68;2.92;;;;;;;19.95;63.44;101876.34;5115573;28;20491;-64
2023/06/27 00:27:05;;;;;;;10.93;3.03;;;;;;;19.97;63.59;101874.09;5115008;27;20330;-63
2023/06/27 00:29:52;;;;;;;5.35;2.65;;;;;;;19.96;63.45;101872.47;5115494;28;20126;-64
2023/06/27 00:32:40;;;;;;;6.10;2.72;;;;;;;20.00;64.32;101873.50;5098923;28;20545;-63
2023/06/27 00:35:30;;;;;;;8.48;3.58;;;;;;;19.96;64.01;101869.72;5096221;28;20058;-63
2023/06/27 00:38:18;;;;;;;7.88;2.70;;;;;;;19.94;64.05;101866.44;5095129;28;20143;-63
2023/06/27 00:41:06;;;;;;;6.93;2.60;;;;;;;19.92;64.29;101870.63;5095690;28;20079;-63
2023/06/27 00:43:56;;;;;;;8.18;2.78;;;;;;;19.90;64.54;101862.63;5094641;28;20052;-61
2023/06/27 00:46:48;;;;;;;13.20;3.28;;;;;;;19.91;64.53;101864.25;5100898;27;20122;-61
2023/06/27 00:49:36;;;;;;;6.85;2.97;;;;;;;19.89;64.73;101865.69;5115489;28;20130;-62
2023/06/27 00:52:23;;;;;;;11.25;3.65;;;;;;;19.87;64.81;101867.97;5094566;27;20120;-62
2023/06/27 00:55:11;;;;;;;10.32;2.95;;;;;;;19.86;65.11;101871.84;5080923;28;20100;-64
2023/06/27 00:58:00;;;;;;;10.55;3.97;;;;;;;19.84;65.21;101869.38;5091394;28;20040;-64
2023/06/27 01:00:50;;;;;;;10.05;3.33;;;;;;;19.82;65.45;101871.66;5100460;28;20082;-65
2023/06/27 01:03:38;;;;;;;10.85;3.67;;;;;;;19.81;65.61;101864.44;5101135;28;20044;-63
2023/06/27 01:06:38;;;;;;;8.70;3.55;;;;;;;19.75;65.84;101871.22;5114787;27;20067;-64
2023/06/27 01:09:12;;;;;;;13.13;3.78;;;;;;;19.72;66.17;101875.41;5112622;27;20054;-62
2023/06/27 01:11:49;;;;;;;9.35;3.88;;;;;;;19.70;66.08;101874.06;5101930;28;20067;-63
2023/06/27 01:14:19;;;;;;;14.32;3.55;;;;;;;19.69;66.64;101867.72;5094497;28;20074;-63
2023/06/27 01:16:47;;;;;;;7.00;2.95;;;;;;;19.69;66.64;101873.25;5094023;28;20044;-64
2023/06/27 01:19:20;;;;;;;12.23;3.05;;;;;;;19.68;66.71;101871.63;5106235;27;20040;-65
2023/06/27 01:21:56;;;;;;;8.60;3.45;;;;;;;19.65;66.92;101869.44;5103890;28;20058;-61
2023/06/27 01:24:25;;;;;;;9.68;3.42;;;;;;;19.62;67.14;101870.00;5093798;28;20146;-62
2023/06/27 01:26:53;;;;;;;10.73;3.10;;;;;;;19.61;67.39;101868.38;5093790;28;20101;-63
2023/06/27 01:29:20;;;;;;;12.15;3.30;;;;;;;19.61;67.63;101867.56;5102473;27;20096;-62
2023/06/27 01:31:54;;;;;;;8.80;3.35;;;;;;;19.61;67.57;101860.09;5112468;28;20047;-62
2023/06/27 01:34:26;;;;;;;9.20;3.45;;;;;;;19.61;67.73;101859.28;5078658;28;20044;-63
2023/06/27 01:37:06;;;;;;;14.02;3.85;;;;;;;19.58;67.60;101871.78;5103905;28;20051;-64
2023/06/27 01:39:47;;;;;;;10.90;3.20;;;;;;;19.56;67.78;101869.31;5099959;27;20048;-61
2023/06/27 01:42:19;;;;;;;8.98;3.38;;;;;;;19.54;68.09;101865.19;5112180;28;20061;-63
2023/06/27 01:44:47;;;;;;;9.65;3.70;;;;;;;19.51;68.31;101872.16;5112888;28;20056;-63
2023/06/27 01:47:16;;;;;;;9.95;3.47;;;;;;;19.48;68.78;101871.94;5113065;28;20054;-63
2023/06/27 01:49:44;;;;;;;10.00;3.20;;;;;;;19.51;68.82;101865.81;5113828;28;20050;-64
2023/06/27 01:52:12;;;;;;;11.45;3.28;;;;;;;19.49;68.76;101865.28;5093643;28;20044;-63
2023/06/27 01:54:41;;;;;;;11.30;3.50;;;;;;;19.47;68.70;101854.53;5094306;28;20056;-61
2023/06/27 01:57:10;;;;;;;9.48;3.40;;;;;;;19.44;69.01;101857.91;5102363;27;20043;-62
2023/06/27 01:59:38;;;;;;;10.88;3.50;;;;;;;19.42;69.06;101854.63;5112964;27;20043;-62
2023/06/27 02:02:06;;;;;;;10.80;3.35;;;;;;;19.42;69.29;101860.16;5095428;28;20047;-62
2023/06/27 02:04:34;;;;;;;13.75;4.90;;;;;;;19.41;69.42;101855.75;5112870;27;20044;-63
2023/06/27 02:07:02;;;;;;;8.32;3.38;;;;;;;19.39;69.65;101849.69;5115610;27;20051;-63
2023/06/27 02:09:30;;;;;;;9.15;3.22;;;;;;;19.39;69.83;101848.88;5111959;28;20043;-62
2023/06/27 02:11:59;;;;;;;9.25;3.97;;;;;;;19.40;70.00;101858.81;5093862;28;20051;-62
2023/06/27 02:14:26;;;;;;;9.82;3.50;;;;;;;19.39;69.73;101852.47;5093175;28;20048;-62
2023/06/27 02:16:54;;;;;;;12.73;3.80;;;;;;;19.35;69.97;101848.66;5101630;27;20046;-63
2023/06/27 02:19:22;;;;;;;10.95;3.63;;;;;;;19.30;70.29;101863.38;5122495;27;20540;-61
2023/06/27 02:21:53;;;;;;;13.52;3.72;;;;;;;19.30;70.35;101857.84;5097353;27;20511;-62
2023/06/27 02:24:20;;;;;;;12.27;4.00;;;;;;;19.28;70.49;101851.81;5093653;28;20499;-62
2023/06/27 02:26:48;;;;;;;10.13;3.70;;;;;;;19.26;70.82;101850.47;5096475;27;20040;-62
2023/06/27 02:29:16;;;;;;;9.95;3.58;;;;;;;19.24;70.71;101849.94;5094343;28;20046;-62
2023/06/27 02:31:44;;;;;;;13.45;4.00;;;;;;;19.22;70.82;101850.25;5093439;28;20081;-63
2023/06/27 02:34:12;;;;;;;14.05;3.50;;;;;;;19.20;71.12;101848.94;5092908;28;20043;-63
2023/06/27 02:36:40;;;;;;;12.05;3.85;;;;;;;19.19;71.10;101847.28;5092559;28;20056;-63
2023/06/27 02:39:08;;;;;;;9.63;3.65;;;;;;;19.18;71.26;101840.94;5111745;28;20055;-63
2023/06/27 02:41:36;;;;;;;14.65;4.40;;;;;;;19.20;71.30;101843.41;5112072;28;20441;-62
2023/06/27 02:44:04;;;;;;;9.18;3.40;;;;;;;19.18;71.43;101849.22;5112787;28;20478;-62
2023/06/27 02:46:32;;;;;;;12.95;3.55;;;;;;;19.15;71.67;101847.06;5113911;28;20047;-61
2023/06/27 02:49:01;;;;;;;10.68;3.92;;;;;;;19.12;72.07;101842.97;5110334;27;20054;-61
2023/06/27 02:51:30;;;;;;;12.68;3.67;;;;;;;19.08;72.09;101846.63;5092032;28;20044;-62
2023/06/27 02:53:58;;;;;;;11.38;3.65;;;;;;;19.06;72.25;101838.63;5075350;28;20058;-62
2023/06/27 02:56:26;;;;;;;10.93;3.75;;;;;;;19.01;72.73;101841.47;5092004;28;20048;-64
2023/06/27 02:58:53;;;;;;;13.73;4.20;;;;;;;18.99;73.14;101842.91;5100979;28;20039;-63
2023/06/27 03:01:21;;;;;;;8.65;3.38;;;;;;;18.99;72.94;101838.19;5113882;28;20039;-63
2023/06/27 03:03:50;;;;;;;12.15;3.88;;;;;;;18.98;73.27;101853.13;5113304;28;20394;-62
2023/06/27 03:06:26;;;;;;;9.32;3.47;;;;;;;18.96;73.34;101844.31;5112647;28;20526;-64
2023/06/27 03:08:55;;;;;;;10.60;3.92;;;;;;;18.98;73.42;101850.38;5109211;28;20559;-63
2023/06/27 03:11:23;;;;;;;9.85;3.92;;;;;;;18.97;73.36;101850.66;5092209;28;20345;-63
2023/06/27 03:13:50;;;;;;;13.65;4.13;;;;;;;19.00;73.46;101848.13;5092612;28;20510;-63
2023/06/27 03:16:18;;;;;;;8.52;3.38;;;;;;;19.00;73.40;101850.06;5111999;28;20040;-63
2023/06/27 03:18:46;;;;;;;12.65;3.90;;;;;;;18.97;73.53;101853.41;5112656;28;20054;-61
2023/06/27 03:21:15;;;;;;;12.40;4.25;;;;;;;18.95;73.55;101859.22;5107658;28;20122;-61
2023/06/27 03:23:43;;;;;;;10.30;3.83;;;;;;;18.93;73.80;101859.56;5108767;28;20048;-64
2023/06/27 03:26:12;;;;;;;15.27;3.55;;;;;;;18.93;73.86;101856.78;5091375;28;20054;-62
2023/06/27 03:28:40;;;;;;;13.77;4.30;;;;;;;18.92;74.13;101854.31;5109390;28;20445;-61
2023/06/27 03:31:08;;;;;;;14.05;4.30;;;;;;;18.88;74.22;101854.09;5103078;28;20050;-60
2023/06/27 03:33:36;;;;;;;11.65;3.67;;;;;;;18.87;74.29;101855.22;5091748;28;20059;-63
2023/06/27 03:36:05;;;;;;;11.80;3.58;;;;;;;18.90;74.39;101859.31;5091999;28;20104;-61
2023/06/27 03:38:33;;;;;;;11.27;4.13;;;;;;;18.89;74.32;101854.91;5108889;28;20078;-62
2023/06/27 03:41:22;;;;;;;9.05;3.60;;;;;;;18.87;74.54;101851.63;5091453;28;20136;-64
2023/06/27 03:44:05;;;;;;;11.30;3.58;;;;;;;18.83;74.71;101845.06;5111256;28;20406;-61
2023/06/27 03:46:42;;;;;;;9.02;3.22;;;;;;;18.84;74.56;101847.53;5112186;28;20044;-64
2023/06/27 03:49:30;;;;;;;15.45;4.25;;;;;;;18.83;74.76;101840.38;5099381;28;20069;-63
2023/06/27 03:51:58;;;;;;;13.77;3.90;;;;;;;18.80;74.92;101846.47;5075190;28;20052;-63
2023/06/27 03:54:46;;;;;;;10.75;3.70;;;;;;;18.82;75.03;101855.28;5092948;28;20087;-62
2023/06/27 03:57:35;;;;;;;11.40;3.60;;;;;;;18.83;74.86;101853.34;5095819;28;20050;-61
2023/06/27 04:00:06;;;;;;;11.25;3.80;;;;;;;18.80;75.30;101852.00;5111778;28;20058;-61
2023/06/27 04:03:01;;;;;;;12.73;3.58;;;;;;;18.83;75.45;101854.19;5110940;28;20056;-63
2023/06/27 04:05:49;;;;;;;9.45;3.42;;;;;;;18.85;75.35;101851.09;5111744;28;20063;-63
2023/06/27 04:08:37;;;;;;;9.18;3.40;;;;;;;18.84;75.67;101852.25;5105935;28;20086;-61
2023/06/27 04:11:24;;;;;;;13.95;3.72;;;;;;;18.79;75.83;101852.31;5110791;27;20407;-64
2023/06/27 04:14:17;;;;;;;14.07;4.47;;;;;;;18.74;76.06;101858.69;5103293;28;20059;-62
2023/06/27 04:17:05;;;;;;;10.75;3.92;;;;;;;18.72;76.54;101855.41;5113861;27;20514;-62
2023/06/27 04:19:52;;;;;;;11.40;3.53;;;;;;;18.71;76.23;101853.75;5099235;28;20040;-62
2023/06/27 04:22:40;;;;;;;10.90;3.72;;;;;;;18.69;76.72;101854.06;5096590;27;20052;-61
2023/06/27 04:25:10;;;;;;;12.55;4.28;;;;;;;18.66;76.89;101853.84;5116175;28;20399;-62
2023/06/27 04:27:59;;;;;;;12.48;4.25;;;;;;;18.60;77.08;101847.56;5101698;27;20050;-63
2023/06/27 04:30:46;;;;;;;12.35;4.22;;;;;;;18.54;77.45;101862.53;5119027;28;20054;-62
2023/06/27 04:33:39;;;;;;;15.70;4.40;;;;;;;18.52;77.54;101871.13;5116743;28;20055;-62
2023/06/27 04:36:30;;;;;;;12.73;3.92;;;;;;;18.48;78.01;101858.22;5125814;27;20150;-63
2023/06/27 04:39:17;;;;;;;12.48;3.70;;;;;;;18.44;78.22;101862.69;5128184;27;20050;-62
2023/06/27 04:42:05;;;;;;;9.18;3.92;;;;;;;18.43;78.61;101867.38;5115006;28;20054;-63
2023/06/27 04:44:55;;;;;;;12.38;3.92;;;;;;;18.46;78.66;101864.03;5115840;28;20083;-62
2023/06/27 04:47:43;;;;;;;10.60;3.67;;;;;;;18.49;78.52;101862.63;5113334;28;20036;-64
2023/06/27 04:50:19;;;;;;;12.20;4.07;;;;;;;18.52;78.58;101862.03;5094053;28;20047;-61
2023/06/27 04:53:07;;;;;;;10.27;3.70;;;;;;;18.53;78.44;101867.25;5099859;28;20048;-63
2023/06/27 04:55:55;;;;;;;12.98;3.65;;;;;;;18.58;78.38;101865.53;5098518;28;20048;-62
2023/06/27 04:58:43;;;;;;;14.20;4.88;;;;;;;18.57;78.59;101869.41;5097827;27;20497;-62
2023/06/27 05:01:11;;;;;;;10.52;4.18;;;;;;;18.57;78.61;101873.00;5114862;28;20039;-65
2023/06/27 05:03:49;;;;;;;13.95;3.88;;;;;;;18.55;78.67;101875.25;5114266;28;20337;-63
2023/06/27 05:06:27;;;;;;;11.73;4.13;;;;;;;18.53;78.95;101877.47;5116164;27;20047;-61
2023/06/27 05:09:01;;;;;;;14.18;4.60;;;;;;;18.55;79.18;101866.97;5136198;27;20055;-62
2023/06/27 05:11:30;;;;;;;10.93;3.38;;;;;;;18.61;79.18;101876.00;5131696;27;20043;-62
2023/06/27 05:13:58;;;;;;;11.10;3.90;;;;;;;18.54;79.62;101870.81;5114085;27;20040;-63
2023/06/27 05:16:28;;;;;;;10.27;3.83;;;;;;;18.56;79.53;101871.34;5102672;28;20109;-62
2023/06/27 05:19:00;;;;;;;13.82;4.50;;;;;;;18.57;79.67;101878.53;5094980;28;20044;-61
2023/06/27 05:21:29;;;;;;;16.50;4.90;;;;;;;18.57;79.68;101872.16;5107156;27;20047;-62
2023/06/27 05:23:58;;;;;;;13.43;4.40;;;;;;;18.52;80.27;101873.91;5135709;27;20376;-62
2023/06/27 05:26:36;;;;;;;12.32;4.70;;;;;;;18.55;80.24;101878.00;5093119;28;20042;-61
2023/06/27 05:29:13;;;;;;;16.17;5.18;;;;;;;18.48;81.05;101878.34;5094316;28;20043;-62
2023/06/27 05:31:43;;;;;;;11.93;4.57;;;;;;;18.50;81.11;101878.06;5106276;27;20039;-62
2023/06/27 05:34:12;;;;;;;13.20;5.18;;;;;;;18.49;81.36;101870.91;5114798;27;20054;-64
2023/06/27 05:36:50;;;;;;;18.25;6.00;;;;;;;18.43;82.26;101864.63;5095978;28;20113;-62
2023/06/27 05:39:24;;;;;;;15.00;4.72;;;;;;;18.50;82.01;101867.03;5094421;28;20040;-61
2023/06/27 05:42:02;;;;;;;12.43;3.90;;;;;;;18.51;82.48;101871.44;5094432;28;20101;-63
2023/06/27 05:44:34;;;;;;;15.07;4.53;;;;;;;18.60;82.02;101875.16;5104657;27;20105;-61
2023/06/27 05:47:13;;;;;;;14.88;4.70;;;;;;;18.58;82.61;101871.88;5113720;28;20567;-62
2023/06/27 05:49:42;;;;;;;12.75;4.05;;;;;;;18.59;83.04;101867.19;5115971;28;20263;-63
2023/06/27 05:52:20;;;;;;;13.00;4.75;;;;;;;18.58;83.75;101865.53;5113904;28;20090;-65
2023/06/27 05:54:51;;;;;;;24.40;5.57;;;;;;;18.63;83.57;101863.53;5111514;28;20047;-63
2023/06/27 05:57:20;;;;;;;13.40;4.78;;;;;;;18.61;84.41;101874.03;5113597;28;20060;-62
2023/06/27 05:59:49;;;;;;;16.52;5.72;;;;;;;18.52;85.63;101873.09;5113184;28;20048;-62
2023/06/27 06:02:27;;;;;;;14.68;4.82;;;;;;;18.49;86.04;101868.13;5132625;27;20039;-64
2023/06/27 06:05:02;;;;;;;15.75;5.30;;;;;;;18.52;86.40;101873.91;5114930;27;20423;-61
2023/06/27 06:07:31;;;;;;;22.30;5.20;;;;;;;18.45;87.53;101875.38;5094099;28;20101;-62
2023/06/27 06:10:00;;;;;;;17.45;5.40;;;;;;;18.31;88.86;101873.31;5093232;28;20059;-62
2023/06/27 06:12:29;;;;;;;15.25;5.03;;;;;;;18.30;89.40;101877.22;5075971;28;20058;-61
2023/06/27 06:14:58;;;;;;;20.30;5.50;;;;;;;18.30;89.74;101868.94;5094667;28;20072;-63
2023/06/27 06:17:28;;;;;;;17.70;5.25;;;;;;;18.37;90.08;101867.75;5106282;27;20401;-61
2023/06/27 06:19:56;;;;;;;17.65;5.30;;;;;;;18.42;89.86;101870.44;5114362;28;20478;-60
2023/06/27 06:22:25;;;;;;;20.10;6.60;;;;;;;18.53;88.90;101869.19;5113476;28;20040;-62
2023/06/27 06:24:54;;;;;;;16.70;5.95;;;;;;;18.61;88.59;101871.28;5108011;28;20097;-64
2023/06/27 06:27:32;;;;;;;16.88;4.57;;;;;;;18.71;88.16;101876.69;5113770;28;20042;-63
2023/06/27 06:30:04;;;;;;;18.38;6.28;;;;;;;18.68;88.65;101874.50;5129581;27;20092;-62
2023/06/27 06:32:42;;;;;;;16.80;5.65;;;;;;;18.71;88.29;101873.06;5134800;27;20047;-61
2023/06/27 06:35:17;;;;;;;19.17;5.85;;;;;;;18.83;87.81;101872.66;5089906;28;20055;-63
2023/06/27 06:37:55;;;;;;;13.23;4.68;;;;;;;18.87;87.83;101880.06;5094042;28;20551;-62
2023/06/27 06:40:33;;;;;;;11.73;4.60;;;;;;;18.94;87.07;101885.22;5092689;28;20052;-63
2023/06/27 06:43:11;;;;;;;13.32;3.97;;;;;;;18.97;87.21;101890.13;5093384;28;20036;-62
2023/06/27 06:45:43;;;;;;;20.88;5.88;;;;;;;18.99;86.91;101887.91;5114248;28;20509;-60
2023/06/27 06:48:21;;;;;;;23.58;4.95;;;;;;;19.00;86.81;101894.25;5113121;28;20527;-62
2023/06/27 06:50:58;;;;;;;16.38;4.78;;;;;;;19.09;85.53;101898.78;5106044;28;20035;-63
2023/06/27 06:53:34;;;;;;;20.05;5.28;;;;;;;19.05;85.50;101897.78;5110872;28;20056;-62
2023/06/27 06:56:12;;;;;;;13.63;5.43;;;;;;;19.02;86.06;101898.34;5112626;28;20044;-63
2023/06/27 06:58:42;;;;;;;14.57;4.95;;;;;;;18.99;84.97;101890.66;5114373;28;20047;-63
2023/06/27 07:01:10;;;;;;;19.00;5.30;;;;;;;19.00;84.27;101894.25;5113918;28;20047;-63
2023/06/27 07:03:39;;;;;;;10.65;4.03;;;;;;;18.96;81.82;101907.84;5088369;28;20131;-63
2023/06/27 07:06:07;;;;;;;13.60;4.70;;;;;;;18.95;82.81;101906.19;5094259;28;20040;-63
2023/06/27 07:08:45;;;;;;;18.45;5.03;;;;;;;18.91;81.37;101889.41;5093555;28;20081;-61
2023/06/27 07:11:22;;;;;;;14.15;4.82;;;;;;;18.91;81.44;101896.88;5093440;28;20407;-62
2023/06/27 07:13:51;;;;;;;13.43;4.13;;;;;;;18.92;78.27;101895.75;5093483;28;20046;-61
2023/06/27 07:16:29;;;;;;;16.35;4.72;;;;;;;18.90;78.57;101909.03;5093676;28;20106;-63
2023/06/27 07:19:03;;;;;;;20.92;3.95;;;;;;;18.95;77.98;101906.19;5129108;28;20080;-64
2023/06/27 07:21:41;;;;;;;11.48;3.72;;;;;;;19.03;72.27;101902.78;5133536;27;20043;-65
2023/06/27 07:24:16;;;;;;;11.45;3.90;;;;;;;19.11;73.07;101896.56;5113483;28;20059;-62
2023/06/27 07:26:44;;;;;;;14.98;3.67;;;;;;;19.20;73.74;101896.72;5112892;28;20463;-60
2023/06/27 07:29:13;;;;;;;12.30;3.53;;;;;;;19.28;70.16;101900.72;5111411;28;20040;-63
2023/06/27 07:31:42;;;;;;;12.80;4.07;;;;;;;19.28;70.34;101893.25;5113900;28;20054;-65
2023/06/27 07:34:10;;;;;;;13.48;3.90;;;;;;;19.33;69.20;101889.59;5110906;28;20044;-65
2023/06/27 07:36:48;;;;;;;10.95;3.20;;;;;;;19.36;68.68;101886.22;5115218;28;20052;-63
2023/06/27 07:39:24;;;;;;;14.85;3.83;;;;;;;19.40;70.84;101884.50;5113609;28;20155;-64
2023/06/27 07:41:52;;;;;;;14.65;3.85;;;;;;;19.44;69.09;101893.03;5110970;28;20047;-65
2023/06/27 07:44:21;;;;;;;10.50;3.53;;;;;;;19.44;67.81;101893.84;5096653;28;20060;-63
2023/06/27 07:46:51;;;;;;;10.00;3.05;;;;;;;19.48;68.40;101894.03;5096880;28;20381;-65
2023/06/27 07:49:32;;;;;;;9.98;3.50;;;;;;;19.50;67.83;101889.84;5112680;27;20139;-63
2023/06/27 07:52:09;;;;;;;10.48;3.10;;;;;;;19.52;66.72;101893.13;5115785;28;20574;-64
2023/06/27 07:54:47;;;;;;;17.10;3.38;;;;;;;19.57;66.68;101887.50;5116478;28;20043;-61
2023/06/27 07:57:24;;;;;;;9.63;3.45;;;;;;;19.62;66.75;101888.56;5115681;28;20566;-62
2023/06/27 07:59:58;;;;;;;16.00;3.40;;;;;;;19.64;67.56;101889.91;5104890;27;20044;-63
2023/06/27 08:02:29;;;;;;;11.32;3.20;;;;;;;19.69;68.20;101889.84;5111464;27;20043;-64
2023/06/27 08:05:00;;;;;;;10.10;3.30;;;;;;;19.72;67.79;101900.31;5135654;27;20035;-63
2023/06/27 08:07:32;;;;;;;9.77;2.80;;;;;;;19.74;67.16;101886.16;5137927;27;20395;-63
2023/06/27 08:10:04;;;;;;;14.82;3.72;;;;;;;19.75;67.74;101882.28;5127075;27;20392;-65
2023/06/27 08:12:34;;;;;;;10.07;3.75;;;;;;;19.77;68.36;101880.84;5116728;28;20480;-64
2023/06/27 08:15:06;;;;;;;11.02;3.53;;;;;;;19.78;64.65;101887.19;5117499;28;20058;-64
2023/06/27 08:17:37;;;;;;;8.25;2.80;;;;;;;19.79;64.12;101878.59;5117241;28;20073;-63
2023/06/27 08:20:08;;;;;;;7.90;2.78;;;;;;;19.87;64.06;101874.31;5117912;27;20447;-65
2023/06/27 08:22:38;;;;;;;10.60;2.92;;;;;;;19.92;63.21;101871.44;5102555;28;20047;-62
2023/06/27 08:25:10;;;;;;;12.60;3.40;;;;;;;19.94;62.35;101877.50;5096582;28;20044;-63
2023/06/27 08:27:41;;;;;;;8.32;2.72;;;;;;;19.92;60.35;101876.16;5096397;28;20055;-65
2023/06/27 08:30:12;;;;;;;23.77;3.30;;;;;;;19.94;60.25;101879.41;5081862;27;20032;-65
2023/06/27 08:32:44;;;;;;;12.10;2.90;;;;;;;19.97;60.49;101879.63;5117453;27;20063;-63
2023/06/27 08:35:15;;;;;;;7.15;2.38;;;;;;;20.00;60.56;101879.03;5099828;28;20043;-62
2023/06/27 08:37:44;;;;;;;7.95;2.95;;;;;;;20.03;60.21;101882.31;5099530;28;20039;-62
2023/06/27 08:40:24;;;;;;;11.13;3.83;;;;;;;20.03;60.51;101890.59;5115383;28;20035;-65
2023/06/27 08:42:59;;;;;;;9.05;3.13;;;;;;;20.04;59.77;101878.44;5094936;28;20052;-63
2023/06/27 08:45:29;;;;;;;8.43;2.70;;;;;;;19.99;59.47;101882.13;5106319;27;20046;-64
2023/06/27 08:47:57;;;;;;;10.52;2.58;;;;;;;19.96;61.28;101872.47;5122682;28;20150;-62
2023/06/27 08:50:42;;;;;;;11.77;3.17;;;;;;;19.96;62.23;101872.47;5122678;28;20048;-64
2023/06/27 08:53:17;;;;;;;7.97;2.70;;;;;;;19.96;62.19;101878.00;5115159;27;20048;-63
2023/06/27 08:56:04;;;;;;;10.18;3.40;;;;;;;19.97;62.73;101874.09;5119190;28;20132;-62
2023/06/27 08:58:55;;;;;;;11.00;3.00;;;;;;;19.94;62.25;101871.97;5123522;28;20035;-63
2023/06/27 09:01:35;;;;;;;10.07;2.70;;;;;;;19.97;59.99;101873.28;5099171;28;20113;-63
2023/06/27 09:04:05;;;;;;;10.50;2.97;;;;;;;20.00;60.32;101867.94;5095124;28;20059;-65
2023/06/27 09:06:43;;;;;;;10.57;2.92;;;;;;;20.03;60.49;101872.06;5099477;27;20055;-65
2023/06/27 09:09:22;;;;;;;9.43;3.22;;;;;;;20.00;61.44;101873.50;5118282;27;20533;-65
2023/06/27 09:11:59;;;;;;;9.77;2.88;;;;;;;20.02;60.96;101875.16;5094278;28;20048;-64
2023/06/27 09:14:27;;;;;;;10.02;3.00;;;;;;;20.02;61.48;101869.63;5107517;28;20560;-63
2023/06/27 09:16:57;;;;;;;10.25;2.78;;;;;;;20.06;62.54;101879.75;5114422;28;20044;-63
2023/06/27 09:19:29;;;;;;;11.88;3.40;;;;;;;20.11;61.37;101878.84;5099715;28;20048;-62
2023/06/27 09:22:00;;;;;;;12.23;3.30;;;;;;;20.11;62.08;101876.06;5095417;28;20089;-64
2023/06/27 09:24:32;;;;;;;9.73;2.78;;;;;;;20.18;62.85;101873.72;5095358;28;20512;-61
2023/06/27 09:27:03;;;;;;;13.25;3.50;;;;;;;20.23;63.13;101881.91;5113078;28;20039;-63
2023/06/27 09:29:36;;;;;;;12.52;3.03;;;;;;;20.30;63.81;101871.25;5115245;28;20040;-63
2023/06/27 09:32:17;;;;;;;10.50;3.00;;;;;;;20.33;64.33;101865.09;5115649;28;20071;-63
2023/06/27 09:34:53;;;;;;;11.25;3.50;;;;;;;20.37;65.76;101862.50;5118188;27;20047;-62
2023/06/27 09:37:30;;;;;;;12.45;3.45;;;;;;;20.40;66.34;101873.81;5104322;28;20043;-65
2023/06/27 09:40:24;;;;;;;10.80;3.42;;;;;;;20.40;65.37;101876.56;5115570;28;20134;-65
2023/06/27 09:43:00;;;;;;;9.20;3.08;;;;;;;20.37;62.63;101882.72;5114441;28;20039;-63
2023/06/27 09:45:32;;;;;;;10.45;3.42;;;;;;;20.37;61.92;101893.81;5114089;28;20495;-64
2023/06/27 09:48:03;;;;;;;8.48;2.80;;;;;;;20.41;58.93;101886.50;5114183;27;20514;-64
2023/06/27 09:50:34;;;;;;;12.82;2.42;;;;;;;20.42;54.16;101888.16;5113163;28;20047;-64
2023/06/27 09:53:05;;;;;;;8.10;2.47;;;;;;;20.46;53.17;101895.84;5114625;27;20051;-62
2023/06/27 09:55:35;;;;;;;8.13;2.38;;;;;;;20.46;52.54;101891.13;5064443;28;20050;-63
2023/06/27 09:58:05;;;;;;;6.25;2.33;;;;;;;20.39;52.38;101885.97;5104617;28;20056;-62
2023/06/27 10:00:38;;;;;;;7.63;2.53;;;;;;;20.36;52.39;101892.16;5097619;28;20055;-63
2023/06/27 10:03:19;;;;;;;7.22;2.28;;;;;;;20.36;52.62;101885.81;5101924;27;20488;-61
2023/06/27 10:05:52;;;;;;;7.25;2.50;;;;;;;20.35;53.02;101882.22;5095423;28;20055;-63
2023/06/27 10:08:50;;;;;;;8.75;2.45;;;;;;;20.38;53.73;101878.81;5093813;28;20044;-61
2023/06/27 10:11:27;;;;;;;6.90;2.58;;;;;;;20.44;53.17;101885.06;5082217;27;20067;-64
2023/06/27 10:13:57;;;;;;;5.15;2.20;;;;;;;20.45;51.21;101889.50;5111268;27;20088;-64
2023/06/27 10:16:28;;;;;;;6.50;2.22;;;;;;;20.49;51.61;101890.50;5114096;28;20093;-64
2023/06/27 10:18:58;;;;;;;12.10;3.05;;;;;;;20.52;51.59;101892.66;5114624;27;20055;-63
2023/06/27 10:21:29;;;;;;;8.35;2.28;;;;;;;20.57;51.65;101897.31;5131600;27;20045;-62
2023/06/27 10:24:01;;;;;;;5.65;1.90;;;;;;;20.63;51.52;101896.88;5126243;27;20044;-63
2023/06/27 10:26:30;;;;;;;6.38;2.08;;;;;;;20.72;50.49;101888.66;5076246;28;20453;-61
2023/06/27 10:29:14;;;;;;;6.88;2.22;;;;;;;20.79;50.76;101889.03;5093597;28;20070;-62
2023/06/27 10:31:45;;;;;;;7.03;2.10;;;;;;;20.81;49.37;101892.34;5093712;28;20052;-61
2023/06/27 10:34:25;;;;;;;6.18;2.20;;;;;;;20.88;49.59;101891.06;5113336;28;20052;-64
2023/06/27 10:37:01;;;;;;;5.30;1.77;;;;;;;20.98;49.16;101902.75;5111357;28;20038;-63
2023/06/27 10:39:34;;;;;;;8.07;2.45;;;;;;;21.00;47.96;101903.25;4386927;28;10000752;-65
2023/06/27 10:42:18;;;;;;;7.13;2.20;;;;;;;20.99;48.07;101886.94;5090193;28;20089;-64
2023/06/27 10:45:01;;;;;;;7.82;2.35;;;;;;;21.01;48.99;101890.22;5111065;28;20074;-63
2023/06/27 10:47:41;;;;;;;5.55;2.17;;;;;;;21.06;49.31;101884.56;5089322;28;20060;-63
2023/06/27 10:50:24;;;;;;;9.32;2.38;;;;;;;21.07;49.23;101877.91;5089349;28;20161;-64
2023/06/27 10:53:16;;;;;;;8.00;2.10;;;;;;;21.07;50.26;101888.97;5089854;28;20056;-67
2023/06/27 10:55:55;;;;;;;9.80;2.60;;;;;;;21.01;51.85;101879.13;5103049;28;20179;-65
2023/06/27 10:58:44;;;;;;;6.82;2.45;;;;;;;21.02;53.05;101878.00;5109568;28;20260;-64
2023/06/27 11:01:20;;;;;;;6.25;2.03;;;;;;;21.03;53.23;101882.41;5109440;28;20055;-64
2023/06/27 11:03:56;;;;;;;9.13;2.72;;;;;;;21.02;53.92;101886.31;5108871;28;20047;-64
2023/06/27 11:06:42;;;;;;;10.88;2.38;;;;;;;21.05;53.97;101885.69;5108019;28;20044;-65
2023/06/27 11:09:19;;;;;;;7.13;2.58;;;;;;;21.12;52.91;101875.00;5110025;28;20122;-64
2023/06/27 11:12:09;;;;;;;5.88;2.17;;;;;;;21.19;52.22;101869.84;5110511;28;20048;-64
2023/06/27 11:14:45;;;;;;;7.20;2.03;;;;;;;21.26;51.77;101867.44;5107722;28;20072;-64
2023/06/27 11:17:18;;;;;;;7.40;2.28;;;;;;;21.31;51.98;101871.19;5110878;28;20043;-64
2023/06/27 11:19:45;;;;;;;8.60;2.90;;;;;;;21.31;52.82;101882.28;5114874;28;20059;-64
2023/06/27 11:22:24;;;;;;;10.55;2.33;;;;;;;21.25;51.70;101874.09;5114547;28;20105;-63
2023/06/27 11:25:14;;;;;;;9.18;2.38;;;;;;;21.23;51.75;101883.88;5097758;27;20139;-64
2023/06/27 11:27:58;;;;;;;7.78;2.72;;;;;;;21.23;51.25;101881.09;5091960;28;20051;-64
2023/06/27 11:30:37;;;;;;;7.28;2.25;;;;;;;21.20;51.32;101876.19;5109916;28;20126;-64
2023/06/27 11:33:14;;;;;;;7.53;2.33;;;;;;;21.20;51.11;101882.56;5096831;28;20062;-64
2023/06/27 11:35:43;;;;;;;6.95;2.42;;;;;;;21.23;51.18;101886.66;5113210;27;20039;-64
2023/06/27 11:38:14;;;;;;;8.70;2.38;;;;;;;21.24;49.22;101875.25;5098250;28;20055;-65
2023/06/27 11:40:51;;;;;;;6.95;2.33;;;;;;;21.26;49.02;101875.75;5099424;27;20063;-64
2023/06/27 11:43:29;;;;;;;5.85;2.33;;;;;;;21.26;48.97;101874.91;5117922;27;20173;-63
2023/06/27 11:46:04;;;;;;;5.78;2.03;;;;;;;21.26;49.36;101875.75;5122842;27;20036;-65
2023/06/27 11:48:36;;;;;;;6.88;2.30;;;;;;;21.30;48.99;101875.94;5113373;28;20097;-64
2023/06/27 11:51:07;;;;;;;5.80;2.13;;;;;;;21.36;48.03;101868.31;5113086;28;20051;-64
2023/06/27 11:53:37;;;;;;;6.57;1.77;;;;;;;21.37;48.56;101870.75;5112213;28;20065;-64
2023/06/27 11:56:08;;;;;;;7.60;2.00;;;;;;;21.38;47.48;101872.44;5109926;27;20043;-64
2023/06/27 11:59:00;;;;;;;4.25;1.90;;;;;;;21.39;47.17;101884.31;5092902;28;20054;-64